Sunday, August 19, 2018, 12:23 AM GMT
Back to Local

CYFC, Fredericton, N. B.

Location: , , Canada Lat: 45.867
Local Time: 12:23 AM GMT ( 0:23 GMT) Lon: -66.533
Time Zone: GMT Elev: 55 ft

Show me the last for .
Show Decoded

2018-08-19 00:00 METAR CYFC 190000Z AUTO 01006KT 9SM CLR 17/15 A2987 RMK SLP116 DENSITY ALT 300FT
                 =
2018-08-18 23:00 METAR CYFC 182300Z AUTO 02008KT 9SM CLR 18/16 A2985 RMK SLP111 DENSITY ALT 500FT
                 =
2018-08-18 22:00 METAR CYFC 182200Z AUTO 03007KT 9SM FEW024 SCT031 OVC065 19/16 A2985 RMK SLP108
                 DENSITY ALT 600FT =
2018-08-18 21:49 METAR CYFC 182149Z AUTO 03010G19KT 9SM SCT022 BKN026 BKN031 OVC065 19/16 A2985
                 RMK SLP108 DENSITY ALT 600FT =
2018-08-18 21:47 METAR CYFC 182147Z AUTO 03012G19KT 9SM BKN022 BKN031 OVC065 19/16 A2985 RMK
                 SLP108 DENSITY ALT 600FT =
2018-08-18 21:45 METAR CYFC 182145Z AUTO 02011G19KT 9SM SCT022 BKN026 BKN031 OVC065 19/16 A2985
                 RMK SLP108 DENSITY ALT 600FT =
2018-08-18 21:02 METAR CYFC 182102Z AUTO 03010KT 350V050 9SM BKN022 OVC065 19/16 A2984 RMK SLP105
                 DENSITY ALT 600FT =
2018-08-18 21:00 METAR CYFC 182100Z AUTO 02010KT 350V050 9SM SCT022 OVC065 19/16 A2984 RMK SLP105
                 DENSITY ALT 600FT =
2018-08-18 20:42 METAR CYFC 182042Z AUTO 03007KT 9SM SCT022 BKN030 OVC065 19/16 A2983 RMK SLP104
                 DENSITY ALT 600FT =
2018-08-18 20:37 METAR CYFC 182037Z AUTO 02007KT 9SM BKN024 BKN030 OVC065 19/16 A2983 RMK SLP104
                 DENSITY ALT 600FT =
2018-08-18 20:36 METAR CYFC 182036Z AUTO 02007KT 9SM SCT022 BKN028 OVC065 19/16 A2983 RMK SLP104
                 DENSITY ALT 500FT =
2018-08-18 20:26 METAR CYFC 182026Z AUTO 03007KT 9SM BKN022 OVC028 19/16 A2983 RMK SLP103 DENSITY
                 ALT 500FT =
2018-08-18 20:23 METAR CYFC 182023Z AUTO 03009KT 9SM SCT022 OVC028 19/16 A2983 RMK SLP103 DENSITY
                 ALT 500FT =
2018-08-18 20:04 METAR CYFC 182004Z AUTO 03009KT 9SM SCT015 BKN022 BKN027 OVC065 18/16 A2982 RMK
                 SLP100 DENSITY ALT 500FT =
2018-08-18 20:01 METAR CYFC 182001Z AUTO 01009KT 9SM SCT015 BKN025 OVC065 18/16 A2982 RMK SLP100
                 DENSITY ALT 500FT =
2018-08-18 20:00 METAR CYFC 182000Z AUTO 01008KT 9SM SCT015 BKN021 BKN028 OVC065 18/16 A2982 RMK
                 SLP100 DENSITY ALT 500FT =
2018-08-18 19:55 METAR CYFC 181955Z AUTO 02008KT 9SM SCT015 BKN021 BKN026 OVC065 18/16 A2982 RMK
                 SLP099 DENSITY ALT 500FT =
2018-08-18 19:52 METAR CYFC 181952Z AUTO 03008KT 9SM SCT015 BKN026 OVC065 18/16 A2982 RMK SLP100
                 DENSITY ALT 500FT =
2018-08-18 19:49 METAR CYFC 181949Z AUTO 02009KT 9SM SCT017 BKN022 BKN026 OVC065 18/16 A2982 RMK
                 SLP100 DENSITY ALT 500FT =
2018-08-18 19:45 METAR CYFC 181945Z AUTO 02010KT 9SM SCT017 BKN026 OVC065 18/16 A2982 RMK SLP100
                 DENSITY ALT 500FT =
2018-08-18 19:00 METAR CYFC 181900Z AUTO 02013KT 9SM BKN013 OVC020 18/16 A2981 RMK SLP096 DENSITY
                 ALT 400FT =
2018-08-18 18:16 METAR CYFC 181816Z AUTO 36012G17KT 9SM SCT010 OVC015 17/16 A2981 RMK SLP095
                 DENSITY ALT 400FT =
2018-08-18 18:00 METAR CYFC 181800Z AUTO 36012KT 9SM -RA OVC016 17/16 A2980 RMK SLP093 DENSITY
                 ALT 400FT =
2018-08-18 17:46 METAR CYFC 181746Z AUTO 01009KT 9SM -RA BKN016 OVC021 17/16 A2980 RMK SLP094
                 DENSITY ALT 400FT =
2018-08-18 17:00 METAR CYFC 181700Z AUTO 02010KT 9SM OVC014 17/15 A2981 RMK SLP097 DENSITY ALT
                 300FT =
2018-08-18 16:16 METAR CYFC 181616Z AUTO 02008G15KT 9SM OVC011 16/15 A2981 RMK SLP096 DENSITY ALT
                 300FT =
2018-08-18 16:07 METAR CYFC 181607Z AUTO 03011KT 9SM OVC011 16/15 A2981 RMK SLP096 DENSITY ALT
                 300FT =
2018-08-18 16:00 METAR CYFC 181600Z AUTO 03008KT 9SM BKN009 OVC013 16/15 A2981 RMK SLP097 DENSITY
                 ALT 300FT =
2018-08-18 15:50 METAR CYFC 181550Z AUTO 02009KT 9SM BKN009 OVC013 16/16 A2981 RMK SLP096 DENSITY
                 ALT 300FT =
2018-08-18 15:33 METAR CYFC 181533Z AUTO 02008KT 9SM -RA OVC007 16/15 A2980 RMK SLP094 DENSITY
                 ALT 300FT =
2018-08-18 15:00 METAR CYFC 181500Z AUTO 02011KT 9SM OVC007 16/15 A2980 RMK SLP094 DENSITY ALT
                 300FT =
2018-08-18 14:55 METAR CYFC 181455Z AUTO 03009KT 6SM BR OVC007 16/15 A2980 RMK SLP093 DENSITY ALT
                 300FT =
2018-08-18 14:31 METAR CYFC 181431Z AUTO 04009KT 5SM BR OVC007 16/15 A2980 RMK SLP092 DENSITY ALT
                 200FT =
2018-08-18 14:24 METAR CYFC 181424Z AUTO 04010G15KT 9SM OVC007 16/15 A2980 RMK SLP093 DENSITY ALT
                 200FT =
2018-08-18 14:20 METAR CYFC 181420Z AUTO 04010G15KT 9SM -RA OVC007 16/15 A2980 RMK SLP092 DENSITY
                 ALT 200FT =
2018-08-18 14:03 METAR CYFC 181403Z AUTO 03010KT 6SM RA BR BKN005 OVC030 16/15 A2980 RMK SLP093
                 DENSITY ALT 200FT =
2018-08-18 14:00 METAR CYFC 181400Z AUTO 04010KT 5SM RA BR BKN005 OVC030 16/15 A2980 RMK SLP092
                 DENSITY ALT 200FT =
2018-08-18 13:56 METAR CYFC 181356Z AUTO 04009KT 5SM RA BR BKN005 OVC030 16/15 A2980 RMK SLP094
                 DENSITY ALT 200FT =
2018-08-18 13:43 METAR CYFC 181343Z AUTO 04011KT 6SM -RA BR BKN005 OVC030 16/15 A2980 RMK SLP092
                 DENSITY ALT 200FT =
2018-08-18 13:36 METAR CYFC 181336Z AUTO 05009G16KT 3SM -RA BR BKN005 OVC030 16/15 A2980 RMK
                 SLP093 DENSITY ALT 200FT =
2018-08-18 13:27 METAR CYFC 181327Z AUTO 03011KT 2SM -RA BR OVC005 16/15 A2980 RMK SLP093 DENSITY
                 ALT 200FT =
2018-08-18 13:00 METAR CYFC 181300Z AUTO 03008KT 1 3/4SM -RA BR OVC005 16/15 A2981 RMK LTNG DIST
                 SE SLP095 DENSITY ALT 200FT =
2018-08-18 12:59 METAR CYFC 181259Z AUTO 03008KT 1 3/4SM -RA BR OVC005 16/15 A2981 RMK SLP096
                 DENSITY ALT 200FT =
2018-08-18 12:55 METAR CYFC 181255Z AUTO 04008KT 2 1/2SM -RA BR OVC005 16/15 A2981 RMK LTNG DIST
                 E SLP095 DENSITY ALT 200FT =
2018-08-18 12:00 METAR CYFC 181200Z AUTO 04008KT 3SM -RA BR OVC005 16/15 A2980 RMK SLP094 DENSITY
                 ALT 200FT =
2018-08-18 11:44 METAR CYFC 181144Z AUTO 05007KT 3SM -RA BR BKN005 OVC010 16/15 A2981 RMK LTNG
                 DIST SW SLP095 DENSITY ALT 300FT =
2018-08-18 11:42 METAR CYFC 181142Z AUTO 05009KT 3SM -RA BR OVC007 16/15 A2980 RMK LTNG DIST SW
                 SLP094 DENSITY ALT 300FT =
2018-08-18 11:37 METAR CYFC 181137Z AUTO 05009KT 3SM -RA BR BKN005 OVC010 16/15 A2981 RMK LTNG
                 DIST SW SLP095 DENSITY ALT 200FT =
2018-08-18 11:13 METAR CYFC 181113Z AUTO 07007KT 5SM -RA BR OVC007 16/15 A2981 RMK SLP097 DENSITY
                 ALT 300FT =
2018-08-18 11:00 METAR CYFC 181100Z AUTO 07009KT 9SM OVC009 16/15 A2980 RMK SLP094 DENSITY ALT
                 300FT =
2018-08-18 10:51 METAR CYFC 181051Z AUTO 08008KT 9SM OVC009 16/15 A2980 RMK SLP094 DENSITY ALT
                 300FT =
2018-08-18 10:22 METAR CYFC 181022Z AUTO 08008KT 9SM -RA OVC011 16/15 A2981 RMK SLP096 DENSITY
                 ALT 200FT =
2018-08-18 10:00 METAR CYFC 181000Z AUTO 09009KT 9SM OVC011 16/15 A2982 RMK SLP099 DENSITY ALT
                 200FT =
2018-08-18 09:57 METAR CYFC 180957Z AUTO 08010KT 9SM OVC011 16/15 A2982 RMK SLP100 DENSITY ALT
                 200FT =
2018-08-18 09:18 METAR CYFC 180918Z AUTO 10006KT 6SM -RA BR OVC013 16/15 A2983 RMK LTNG DIST SE
                 SLP104 DENSITY ALT 200FT =
2018-08-18 09:12 METAR CYFC 180912Z AUTO 10007KT 5SM RA BR OVC011 16/15 A2983 RMK LTNG DIST SE
                 SLP104 DENSITY ALT 200FT =
2018-08-18 09:00 METAR CYFC 180900Z AUTO 08007KT 6SM -RA BR OVC011 16/15 A2984 RMK LTNG DIST S
                 SLP107 DENSITY ALT 200FT =
2018-08-18 08:52 METAR CYFC 180852Z AUTO 08008KT 7SM RA OVC011 16/15 A2985 RMK SLP108 DENSITY ALT
                 200FT =
2018-08-18 08:44 METAR CYFC 180844Z AUTO 07007KT 9SM -RA BKN009 OVC014 16/15 A2985 RMK SLP110
                 DENSITY ALT 200FT =
2018-08-18 08:23 METAR CYFC 180823Z AUTO 08011KT 6SM -RA BR BKN016 OVC026 16/15 A2985 RMK SLP108
                 DENSITY ALT 200FT =
2018-08-18 08:18 METAR CYFC 180818Z AUTO 08009KT 4SM -RA BR BKN016 OVC026 15/15 A2985 RMK SLP109
                 DENSITY ALT 200FT =
2018-08-18 08:14 METAR CYFC 180814Z AUTO 07008KT 4SM +RA BR BKN016 OVC028 15/15 A2985 RMK SLP111
                 DENSITY ALT 200FT =
2018-08-18 08:02 METAR CYFC 180802Z AUTO 09008KT 3SM RA BR SCT014 BKN018 BKN030 OVC050 16/15
                 A2986 RMK SLP112 DENSITY ALT 200FT =
2018-08-18 08:00 METAR CYFC 180800Z AUTO 08008KT 3SM +RA BR FEW009 BKN018 BKN030 OVC050 16/15
                 A2986 RMK SLP113 DENSITY ALT 200FT =
2018-08-18 07:59 METAR CYFC 180759Z AUTO 08007KT 3SM +RA BR FEW012 BKN018 BKN030 OVC050 16/15
                 A2986 RMK SLP113 DENSITY ALT 200FT =
2018-08-18 07:57 METAR CYFC 180757Z AUTO 09006KT 3SM +RA BR FEW012 BKN022 BKN033 OVC050 16/15
                 A2986 RMK SLP113 DENSITY ALT 200FT =
2018-08-18 07:56 METAR CYFC 180756Z AUTO 09007KT 3SM +RA BR FEW009 SCT019 BKN031 OVC050 16/15
                 A2986 RMK SLP114 DENSITY ALT 200FT =
2018-08-18 07:51 METAR CYFC 180751Z AUTO 08008KT 3SM RA BR FEW010 SCT026 BKN033 OVC044 16/15
                 A2986 RMK PRESFR SLP113 DENSITY ALT 200FT =
2018-08-18 07:49 METAR CYFC 180749Z AUTO 08008KT 3SM +RA BR FEW026 BKN033 BKN044 OVC055 16/15
                 A2986 RMK PRESFR SLP114 DENSITY ALT 200FT =
2018-08-18 07:44 METAR CYFC 180744Z AUTO 08008KT 2 1/2SM RA BR FEW026 SCT035 BKN044 OVC055 16/15
                 A2987 RMK PRESFR SLP115 DENSITY ALT 200FT =
2018-08-18 07:29 METAR CYFC 180729Z AUTO 06004KT 290V090 2 1/2SM +RA BR FEW025 SCT030 SCT035
                 OVC044 16/15 A2989 RMK PRESRR SLP124 DENSITY ALT 200FT =
2018-08-18 07:26 METAR CYFC 180726Z AUTO 08006KT 290V090 4SM +RA BR FEW025 SCT032 OVC044 16/15
                 A2989 RMK PRESRR SLP122 DENSITY ALT 100FT =
2018-08-18 07:25 METAR CYFC 180725Z AUTO 08006KT 290V090 5SM -RA BR FEW025 SCT032 OVC044 16/15
                 A2988 RMK SLP120 DENSITY ALT 200FT =
2018-08-18 07:21 METAR CYFC 180721Z AUTO 30009KT 290V080 6SM -RA BR FEW025 OVC044 16/15 A2992 RMK
                 PRESRR SLP133 DENSITY ALT 100FT =
2018-08-18 07:13 METAR CYFC 180713Z AUTO 07009KT 5SM RA BR FEW032 OVC044 16/15 A2987 RMK LTNG
                 DIST SW PRESFR SLP117 DENSITY ALT 200FT =
2018-08-18 07:08 METAR CYFC 180708Z AUTO 08005KT 8SM -RA FEW032 OVC044 16/15 A2988 RMK LTNG DIST
                 SW SLP121 DENSITY ALT 200FT =
2018-08-18 07:03 METAR CYFC 180703Z AUTO 09007KT 3SM -RA BR FEW034 OVC044 16/15 A2988 RMK LTNG
                 DIST SW SLP120 DENSITY ALT 200FT =
2018-08-18 07:02 METAR CYFC 180702Z AUTO 09006KT 2 1/2SM -RA BR FEW034 OVC044 16/15 A2988 RMK
                 LTNG DIST SW SLP120 DENSITY ALT 200FT =
2018-08-18 07:00 METAR CYFC 180700Z AUTO 09007KT 2SM +RA BR SCT032 OVC044 16/15 A2989 RMK VIS VRB
                 1 1/2-3 LTNG DIST SW SLP122 DENSITY ALT 100FT =
2018-08-18 06:56 METAR CYFC 180656Z AUTO 12004KT 2 1/2SM +RA BR SCT032 OVC046 16/15 A2990 RMK VIS
                 VRB 1 3/4-3 SLP127 DENSITY ALT 100FT =
2018-08-18 06:51 METAR CYFC 180651Z AUTO 10006KT 4SM +RA BR FEW030 OVC046 16/15 A2989 RMK SLP122
                 DENSITY ALT 100FT =
2018-08-18 06:49 METAR CYFC 180649Z AUTO 10006KT 5SM RA BR OVC046 16/15 A2989 RMK SLP122 DENSITY
                 ALT 200FT =
2018-08-18 06:43 METAR CYFC 180643Z AUTO 06004KT 6SM -RA BR OVC046 16/15 A2990 RMK SLP125 DENSITY
                 ALT 200FT =
2018-08-18 06:35 METAR CYFC 180635Z AUTO 07004KT 4SM RA BR FEW035 OVC046 16/15 A2989 RMK SLP124
                 DENSITY ALT 200FT =
2018-08-18 06:31 METAR CYFC 180631Z AUTO 09003KT 070V130 5SM +RA BR FEW035 OVC046 16/15 A2990 RMK
                 SLP126 DENSITY ALT 100FT =
2018-08-18 06:29 METAR CYFC 180629Z AUTO 10004KT 5SM RA BR FEW035 OVC046 16/15 A2990 RMK SLP126
                 DENSITY ALT 100FT =
2018-08-18 06:24 METAR CYFC 180624Z AUTO 11003KT 6SM -RA BR SCT037 OVC046 16/15 A2990 RMK SLP126
                 DENSITY ALT 100FT =
2018-08-18 06:07 METAR CYFC 180607Z AUTO 00000KT 5SM RA BR FEW007 SCT031 BKN038 OVC046 16/15
                 A2991 RMK SLP130 DENSITY ALT 100FT =
2018-08-18 06:00 METAR CYFC 180600Z AUTO VRB02KT 6SM RA BR SCT031 BKN040 OVC047 16/15 A2991 RMK
                 SLP131 DENSITY ALT 100FT =
2018-08-18 05:59 METAR CYFC 180559Z AUTO 17003KT 130V190 6SM RA BR SCT031 BKN040 OVC047 16/15
                 A2991 RMK SLP131 DENSITY ALT 100FT =
2018-08-18 05:55 METAR CYFC 180555Z AUTO 16003KT 5SM +RA BR SCT031 BKN043 OVC050 16/15 A2992 RMK
                 SLP132 DENSITY ALT 100FT =
2018-08-18 05:39 METAR CYFC 180539Z AUTO 17005KT 4SM RA BR SCT033 SCT040 OVC050 16/15 A2993 RMK
                 SLP135 DENSITY ALT 100FT =
2018-08-18 05:33 METAR CYFC 180533Z AUTO 19004KT 140V200 4SM +RA BR FEW028 OVC050 16/15 A2993 RMK
                 SLP136 DENSITY ALT 100FT =
2018-08-18 05:31 METAR CYFC 180531Z AUTO 18003KT 5SM RA BR SCT045 OVC050 16/15 A2993 RMK SLP136
                 DENSITY ALT 100FT =
2018-08-18 05:13 METAR CYFC 180513Z AUTO 21003KT 9SM RA SCT043 OVC055 16/15 A2993 RMK SLP138
                 DENSITY ALT 100FT =
2018-08-18 05:10 METAR CYFC 180510Z AUTO 22003KT 9SM +RA SCT043 OVC055 16/15 A2994 RMK SLP139
                 DENSITY ALT 100FT
2018-08-18 05:00 METAR CYFC 180500Z AUTO 20004KT 9SM -RA SCT043 OVC055 16/15 A2994 RMK SLP141
                 DENSITY ALT 100FT =
2018-08-18 04:56 METAR CYFC 180456Z AUTO 20004KT 9SM -RA FEW043 OVC055 16/15 A2994 RMK SLP141
                 DENSITY ALT 100FT =
2018-08-18 04:43 METAR CYFC 180443Z AUTO 18005KT 9SM OVC055 16/15 A2994 RMK SLP139 DENSITY ALT
                 200FT =
2018-08-18 04:17 METAR CYFC 180417Z AUTO 18004KT 9SM -RA BKN060 OVC089 17/14 A2995 RMK SLP142
                 DENSITY ALT 200FT =
2018-08-18 04:12 METAR CYFC 180412Z AUTO 19004KT 9SM BKN065 OVC074 17/14 A2995 RMK SLP143 DENSITY
                 ALT 200FT =
2018-08-18 04:00 METAR CYFC 180400Z AUTO 18006KT 9SM -RA OVC065 17/14 A2995 RMK SLP144 DENSITY
                 ALT 200FT =
2018-08-18 03:56 METAR CYFC 180356Z AUTO 17006KT 9SM -RA OVC065 17/14 A2995 RMK SLP143 DENSITY
                 ALT 200FT =
2018-08-18 03:00 METAR CYFC 180300Z AUTO 19005KT 9SM OVC130 17/14 A2996 RMK SLP147 DENSITY ALT
                 200FT =
2018-08-18 02:00 METAR CYFC 180200Z AUTO 18008KT 9SM FEW046 OVC150 17/14 A2997 RMK SLP152 DENSITY
                 ALT 200FT =
2018-08-18 01:00 METAR CYFC 180100Z AUTO 18009KT 9SM FEW180 BKN220 17/13 A2998 RMK SLP156 DENSITY
                 ALT 200FT =

Support USWX by starting your Amazon purchase here.